ARG1640 SABE-SAVV
Flight info
| Callsign | ARG1640 |
|---|---|
| Flight time | 1h 22m |
| Altitude | 36000 |
| Route | PTA8 GBE UT694 IREMO DCT VIE |
| Aircraft | E190/M-SDE3GILORVW/S |
Departure
| Time | 2026-04-26 12:42 |
|---|---|
| Airport | Aeroparque Jorge Newbery (SABE) |
Arrival
| Time | 2026-04-26 14:05 |
|---|---|
| Airport | Gobernador Castello Airport (SAVV) |
| Time | Latitude | Longitude | Altitude | Speed | Heading |
|---|---|---|---|---|---|
| 2026-04-26 12:22 | -34.55804 | -58.41447 | 26 ft | 0 kts | 208° |
| 2026-04-26 12:35 | -34.55803 | -58.41445 | 26 ft | 0 kts | 208° |
| 2026-04-26 12:35 | -34.55792 | -58.41441 | 26 ft | 2 kts | 185° |
| 2026-04-26 12:35 | -34.55778 | -58.41443 | 26 ft | 2 kts | 154° |
| 2026-04-26 12:36 | -34.55767 | -58.41454 | 26 ft | 1 kts | 124° |
| 2026-04-26 12:36 | -34.55764 | -58.41459 | 26 ft | 0 kts | 118° |
| 2026-04-26 12:38 | -34.55764 | -58.41458 | 26 ft | 0 kts | 118° |
| 2026-04-26 12:38 | -34.55772 | -58.41442 | 26 ft | 3 kts | 122° |
| 2026-04-26 12:38 | -34.55796 | -58.41404 | 26 ft | 7 kts | 130° |
| 2026-04-26 12:38 | -34.55840 | -58.41349 | 26 ft | 10 kts | 138° |
| 2026-04-26 12:39 | -34.55911 | -58.41294 | 26 ft | 13 kts | 145° |
| 2026-04-26 12:39 | -34.55980 | -58.41198 | 26 ft | 16 kts | 125° |
| 2026-04-26 12:39 | -34.56057 | -58.41074 | 26 ft | 19 kts | 127° |
| 2026-04-26 12:39 | -34.56137 | -58.40939 | 26 ft | 19 kts | 124° |
| 2026-04-26 12:40 | -34.56218 | -58.40805 | 26 ft | 19 kts | 134° |
| 2026-04-26 12:40 | -34.56280 | -58.40734 | 26 ft | 0 kts | 138° |
| 2026-04-26 12:40 | -34.56282 | -58.40733 | 26 ft | 0 kts | 138° |
| 2026-04-26 12:40 | -34.56285 | -58.40729 | 26 ft | 0 kts | 139° |
| 2026-04-26 12:41 | -34.56293 | -58.40721 | 26 ft | 2 kts | 139° |
| 2026-04-26 12:41 | -34.56318 | -58.40696 | 26 ft | 6 kts | 140° |
| 2026-04-26 12:41 | -34.56371 | -58.40656 | 26 ft | 10 kts | 160° |
| 2026-04-26 12:41 | -34.56389 | -58.40726 | 26 ft | 15 kts | 301° |
| 2026-04-26 12:42 | -34.56247 | -58.40989 | 26 ft | 76 kts | 304° |
| 2026-04-26 12:42 | -34.55798 | -58.41800 | 27 ft | 151 kts | 302° |
| 2026-04-26 12:42 | -34.55124 | -58.42958 | 426 ft | 181 kts | 314° |
| 2026-04-26 12:42 | -34.53998 | -58.43674 | 1302 ft | 196 kts | 342° |
| 2026-04-26 12:43 | -34.52652 | -58.43568 | 1695 ft | 197 kts | 17° |
| 2026-04-26 12:43 | -34.51549 | -58.42432 | 2416 ft | 223 kts | 57° |
| 2026-04-26 12:43 | -34.51009 | -58.40639 | 3147 ft | 239 kts | 83° |
| 2026-04-26 12:43 | -34.51219 | -58.38608 | 3726 ft | 253 kts | 110° |
| 2026-04-26 12:44 | -34.51804 | -58.36509 | 4174 ft | 276 kts | 111° |
| 2026-04-26 12:44 | -34.52431 | -58.34267 | 4714 ft | 289 kts | 110° |
| 2026-04-26 12:44 | -34.53093 | -58.31902 | 5483 ft | 301 kts | 110° |
| 2026-04-26 12:44 | -34.53645 | -58.29456 | 6372 ft | 308 kts | 97° |
| 2026-04-26 12:45 | -34.53774 | -58.26870 | 7304 ft | 311 kts | 97° |
| 2026-04-26 12:45 | -34.54549 | -58.24460 | 8127 ft | 313 kts | 130° |
| 2026-04-26 12:45 | -34.56119 | -58.22651 | 8891 ft | 314 kts | 146° |
| 2026-04-26 12:45 | -34.57863 | -58.20986 | 8661 ft | 317 kts | 145° |
| 2026-04-26 12:46 | -34.59636 | -58.19509 | 8650 ft | 308 kts | 160° |
| 2026-04-26 12:46 | -34.61647 | -58.19015 | 8679 ft | 290 kts | 193° |
| 2026-04-26 12:46 | -34.63577 | -58.19568 | 8676 ft | 280 kts | 206° |
| 2026-04-26 12:46 | -34.65384 | -58.20410 | 8667 ft | 277 kts | 213° |
| 2026-04-26 12:47 | -34.67114 | -58.21447 | 8654 ft | 275 kts | 214° |
| 2026-04-26 12:47 | -34.68784 | -58.22525 | 8655 ft | 272 kts | 220° |
| 2026-04-26 12:47 | -34.70311 | -58.23883 | 8659 ft | 268 kts | 227° |
| 2026-04-26 12:47 | -34.71662 | -58.25411 | 8658 ft | 264 kts | 233° |
| 2026-04-26 12:48 | -34.72834 | -58.27094 | 8656 ft | 260 kts | 239° |
| 2026-04-26 12:48 | -34.74093 | -58.28687 | 8655 ft | 271 kts | 217° |
| 2026-04-26 12:48 | -34.75971 | -58.29289 | 8692 ft | 290 kts | 189° |
| 2026-04-26 12:48 | -34.78016 | -58.29340 | 8664 ft | 292 kts | 188° |
| 2026-04-26 12:49 | -34.80038 | -58.29366 | 8656 ft | 291 kts | 188° |
| 2026-04-26 12:49 | -34.82059 | -58.29458 | 8652 ft | 286 kts | 199° |
| 2026-04-26 12:49 | -34.83757 | -58.30448 | 8687 ft | 267 kts | 225° |
| 2026-04-26 12:49 | -34.85181 | -58.31866 | 9283 ft | 266 kts | 227° |
| 2026-04-26 12:50 | -34.86610 | -58.33300 | 9892 ft | 273 kts | 227° |
| 2026-04-26 12:50 | -34.88104 | -58.34775 | 10504 ft | 278 kts | 227° |
| 2026-04-26 12:50 | -34.89629 | -58.36264 | 11119 ft | 288 kts | 227° |
| 2026-04-26 12:50 | -34.91251 | -58.37784 | 11732 ft | 301 kts | 222° |
| 2026-04-26 12:51 | -34.93023 | -58.39156 | 12449 ft | 310 kts | 221° |
| 2026-04-26 12:51 | -34.94861 | -58.40566 | 13263 ft | 316 kts | 222° |
| 2026-04-26 12:51 | -34.96860 | -58.41799 | 14129 ft | 333 kts | 209° |
| 2026-04-26 12:51 | -34.99135 | -58.42434 | 15112 ft | 343 kts | 199° |
| 2026-04-26 12:52 | -35.01490 | -58.42760 | 16180 ft | 342 kts | 196° |
| 2026-04-26 12:52 | -35.03844 | -58.42956 | 17240 ft | 339 kts | 195° |
| 2026-04-26 12:52 | -35.06191 | -58.43103 | 18162 ft | 338 kts | 195° |
| 2026-04-26 12:52 | -35.08544 | -58.43231 | 18950 ft | 340 kts | 195° |
| 2026-04-26 12:53 | -35.10895 | -58.43351 | 19631 ft | 344 kts | 196° |
| 2026-04-26 12:53 | -35.13320 | -58.43471 | 20239 ft | 350 kts | 196° |
| 2026-04-26 12:53 | -35.15742 | -58.43588 | 20925 ft | 352 kts | 197° |
| 2026-04-26 12:53 | -35.18197 | -58.43706 | 21569 ft | 354 kts | 197° |
| 2026-04-26 12:54 | -35.20678 | -58.43825 | 22326 ft | 354 kts | 197° |
| 2026-04-26 12:54 | -35.23131 | -58.43945 | 22888 ft | 358 kts | 197° |
| 2026-04-26 12:54 | -35.25629 | -58.44067 | 23441 ft | 362 kts | 197° |
| 2026-04-26 12:54 | -35.28155 | -58.44190 | 23978 ft | 366 kts | 197° |
| 2026-04-26 12:55 | -35.30712 | -58.44314 | 24503 ft | 370 kts | 197° |
| 2026-04-26 12:55 | -35.33278 | -58.44437 | 25006 ft | 374 kts | 197° |
| 2026-04-26 12:55 | -35.35917 | -58.44566 | 25508 ft | 377 kts | 197° |
| 2026-04-26 12:55 | -35.38523 | -58.44692 | 25968 ft | 381 kts | 196° |
| 2026-04-26 12:56 | -35.41186 | -58.44821 | 26419 ft | 385 kts | 196° |
| 2026-04-26 12:56 | -35.43903 | -58.44953 | 26829 ft | 390 kts | 196° |
| 2026-04-26 12:56 | -35.46595 | -58.45084 | 27334 ft | 391 kts | 196° |
| 2026-04-26 12:56 | -35.49302 | -58.45215 | 27708 ft | 395 kts | 196° |
| 2026-04-26 12:57 | -35.52074 | -58.45349 | 28165 ft | 397 kts | 196° |
| 2026-04-26 12:57 | -35.54827 | -58.45483 | 28608 ft | 398 kts | 196° |
| 2026-04-26 12:57 | -35.57628 | -58.45620 | 29047 ft | 400 kts | 196° |
| 2026-04-26 12:58 | -35.63200 | -58.45893 | 29690 ft | 408 kts | 195° |
| 2026-04-26 12:58 | -35.66077 | -58.46033 | 29996 ft | 411 kts | 195° |
| 2026-04-26 12:58 | -35.68925 | -58.46172 | 30268 ft | 414 kts | 195° |
| 2026-04-26 12:58 | -35.71817 | -58.46341 | 30524 ft | 412 kts | 199° |
| 2026-04-26 12:59 | -35.74550 | -58.46960 | 30827 ft | 396 kts | 209° |
| 2026-04-26 12:59 | -35.77090 | -58.48127 | 31068 ft | 384 kts | 218° |
| 2026-04-26 12:59 | -35.79377 | -58.49760 | 31318 ft | 378 kts | 223° |
| 2026-04-26 12:59 | -35.81622 | -58.51485 | 31500 ft | 382 kts | 223° |
| 2026-04-26 13:00 | -35.83886 | -58.53224 | 31763 ft | 384 kts | 223° |
| 2026-04-26 13:00 | -35.86120 | -58.54940 | 32106 ft | 382 kts | 223° |
| 2026-04-26 13:00 | -35.88375 | -58.56675 | 32364 ft | 383 kts | 223° |
| 2026-04-26 13:00 | -35.90635 | -58.58416 | 32591 ft | 384 kts | 223° |
| 2026-04-26 13:01 | -35.92918 | -58.60175 | 32892 ft | 383 kts | 223° |
| 2026-04-26 13:01 | -35.95145 | -58.61892 | 33096 ft | 384 kts | 223° |
| 2026-04-26 13:01 | -35.97411 | -58.63641 | 33298 ft | 385 kts | 223° |
| 2026-04-26 13:01 | -35.99675 | -58.65388 | 33561 ft | 385 kts | 223° |
| 2026-04-26 13:02 | -36.01947 | -58.67143 | 33835 ft | 386 kts | 223° |
| 2026-04-26 13:02 | -36.04218 | -58.68899 | 34138 ft | 386 kts | 223° |
| 2026-04-26 13:02 | -36.06502 | -58.70667 | 34450 ft | 385 kts | 223° |
| 2026-04-26 13:02 | -36.08754 | -58.72409 | 34747 ft | 384 kts | 222° |
| 2026-04-26 13:03 | -36.11012 | -58.74159 | 34978 ft | 385 kts | 223° |
| 2026-04-26 13:03 | -36.13305 | -58.75937 | 35237 ft | 385 kts | 222° |
| 2026-04-26 13:03 | -36.15560 | -58.77686 | 35477 ft | 385 kts | 222° |
| 2026-04-26 13:03 | -36.17810 | -58.79432 | 35721 ft | 385 kts | 222° |
| 2026-04-26 13:04 | -36.22418 | -58.83016 | 35816 ft | 395 kts | 221° |
| 2026-04-26 13:04 | -36.27114 | -58.86670 | 35907 ft | 405 kts | 221° |
| 2026-04-26 13:05 | -36.31930 | -58.90424 | 35910 ft | 415 kts | 220° |
| 2026-04-26 13:05 | -36.36831 | -58.94247 | 35914 ft | 416 kts | 220° |
| 2026-04-26 13:06 | -36.41747 | -58.98090 | 35903 ft | 416 kts | 220° |
| 2026-04-26 13:06 | -36.46618 | -59.01904 | 35902 ft | 416 kts | 220° |
| 2026-04-26 13:07 | -36.51507 | -59.05737 | 35910 ft | 416 kts | 220° |
| 2026-04-26 13:07 | -36.56422 | -59.09596 | 35911 ft | 417 kts | 220° |
| 2026-04-26 13:08 | -36.61306 | -59.13438 | 35889 ft | 416 kts | 220° |
| 2026-04-26 13:08 | -36.66222 | -59.17310 | 35900 ft | 417 kts | 220° |
| 2026-04-26 13:09 | -36.71135 | -59.21186 | 35892 ft | 419 kts | 220° |
| 2026-04-26 13:09 | -36.76048 | -59.25068 | 35888 ft | 421 kts | 219° |
| 2026-04-26 13:10 | -36.80986 | -59.28976 | 35868 ft | 418 kts | 219° |
| 2026-04-26 13:10 | -36.85897 | -59.32868 | 35872 ft | 419 kts | 219° |
| 2026-04-26 13:11 | -36.90786 | -59.36749 | 35866 ft | 419 kts | 219° |
| 2026-04-26 13:11 | -36.95713 | -59.40665 | 35866 ft | 418 kts | 219° |
| 2026-04-26 13:12 | -37.00631 | -59.44582 | 35865 ft | 421 kts | 219° |
| 2026-04-26 13:12 | -37.05533 | -59.48490 | 35861 ft | 420 kts | 219° |
| 2026-04-26 13:13 | -37.10474 | -59.52436 | 35861 ft | 421 kts | 219° |
| 2026-04-26 13:13 | -37.15393 | -59.56372 | 35858 ft | 420 kts | 219° |
| 2026-04-26 13:14 | -37.20276 | -59.60382 | 35857 ft | 420 kts | 220° |
| 2026-04-26 13:14 | -37.25118 | -59.64477 | 35856 ft | 418 kts | 220° |
| 2026-04-26 13:15 | -37.29930 | -59.68550 | 35870 ft | 417 kts | 220° |
| 2026-04-26 13:15 | -37.33956 | -59.71962 | 35872 ft | 420 kts | 220° |
| 2026-04-26 13:16 | -37.39572 | -59.76729 | 35876 ft | 418 kts | 220° |
| 2026-04-26 13:16 | -37.44390 | -59.80825 | 35880 ft | 418 kts | 220° |
| 2026-04-26 13:17 | -37.51595 | -59.86964 | 35866 ft | 419 kts | 220° |
| 2026-04-26 13:18 | -37.58825 | -59.93137 | 35861 ft | 419 kts | 220° |
| 2026-04-26 13:19 | -37.66073 | -59.99342 | 35869 ft | 420 kts | 219° |
| 2026-04-26 13:19 | -37.70890 | -60.03473 | 35870 ft | 420 kts | 219° |
| 2026-04-26 13:20 | -37.75718 | -60.07620 | 35862 ft | 421 kts | 219° |
| 2026-04-26 13:20 | -37.80535 | -60.11765 | 35860 ft | 419 kts | 219° |
| 2026-04-26 13:21 | -37.85354 | -60.15918 | 35866 ft | 420 kts | 219° |
| 2026-04-26 13:21 | -37.90194 | -60.20096 | 35857 ft | 419 kts | 219° |
| 2026-04-26 13:22 | -37.95005 | -60.24256 | 35864 ft | 419 kts | 219° |
| 2026-04-26 13:22 | -37.99817 | -60.28424 | 35838 ft | 421 kts | 219° |
| 2026-04-26 13:23 | -38.04627 | -60.32595 | 35839 ft | 421 kts | 219° |
| 2026-04-26 13:23 | -38.09428 | -60.36766 | 35850 ft | 420 kts | 219° |
| 2026-04-26 13:24 | -38.14256 | -60.40968 | 35855 ft | 420 kts | 219° |
| 2026-04-26 13:24 | -38.19102 | -60.45103 | 35851 ft | 420 kts | 218° |
| 2026-04-26 13:25 | -38.23953 | -60.49214 | 35846 ft | 422 kts | 218° |
| 2026-04-26 13:25 | -38.28850 | -60.53371 | 35845 ft | 422 kts | 218° |
| 2026-04-26 13:26 | -38.33705 | -60.57500 | 35839 ft | 421 kts | 217° |
| 2026-04-26 13:26 | -38.38571 | -60.61646 | 35839 ft | 422 kts | 217° |
| 2026-04-26 13:27 | -38.43474 | -60.65829 | 35839 ft | 423 kts | 218° |
| 2026-04-26 13:27 | -38.48338 | -60.69987 | 35845 ft | 422 kts | 218° |
| 2026-04-26 13:28 | -38.53184 | -60.74134 | 35844 ft | 421 kts | 218° |
| 2026-04-26 13:28 | -38.58059 | -60.78315 | 35827 ft | 423 kts | 218° |
| 2026-04-26 13:29 | -38.62936 | -60.82504 | 35822 ft | 422 kts | 218° |
| 2026-04-26 13:29 | -38.67770 | -60.86663 | 35837 ft | 421 kts | 217° |
| 2026-04-26 13:30 | -38.72641 | -60.90861 | 35825 ft | 422 kts | 217° |
| 2026-04-26 13:30 | -38.77489 | -60.95045 | 35821 ft | 421 kts | 217° |
| 2026-04-26 13:31 | -38.82332 | -60.99233 | 35839 ft | 421 kts | 217° |
| 2026-04-26 13:31 | -38.87220 | -61.03466 | 35841 ft | 423 kts | 217° |
| 2026-04-26 13:32 | -38.92072 | -61.07676 | 35844 ft | 422 kts | 217° |
| 2026-04-26 13:32 | -38.96924 | -61.11892 | 35852 ft | 421 kts | 217° |
| 2026-04-26 13:33 | -39.01753 | -61.16096 | 35828 ft | 422 kts | 217° |
| 2026-04-26 13:33 | -39.06638 | -61.20356 | 35843 ft | 422 kts | 217° |
| 2026-04-26 13:34 | -39.11419 | -61.24530 | 35824 ft | 407 kts | 217° |
| 2026-04-26 13:34 | -39.16051 | -61.28584 | 35846 ft | 402 kts | 217° |
| 2026-04-26 13:35 | -39.20711 | -61.32668 | 35307 ft | 408 kts | 217° |
| 2026-04-26 13:35 | -39.23044 | -61.34715 | 34865 ft | 406 kts | 217° |
| 2026-04-26 13:35 | -39.25375 | -61.36761 | 34417 ft | 404 kts | 217° |
| 2026-04-26 13:35 | -39.27687 | -61.38794 | 33975 ft | 405 kts | 217° |
| 2026-04-26 13:36 | -39.30008 | -61.40835 | 33524 ft | 407 kts | 216° |
| 2026-04-26 13:36 | -39.32352 | -61.42898 | 33119 ft | 408 kts | 216° |
| 2026-04-26 13:36 | -39.34686 | -61.44954 | 32702 ft | 412 kts | 216° |
| 2026-04-26 13:36 | -39.37044 | -61.47033 | 32243 ft | 413 kts | 216° |
| 2026-04-26 13:37 | -39.39424 | -61.49133 | 31764 ft | 415 kts | 216° |
| 2026-04-26 13:37 | -39.41814 | -61.51244 | 31323 ft | 417 kts | 216° |
| 2026-04-26 13:37 | -39.44181 | -61.53336 | 30892 ft | 419 kts | 216° |
| 2026-04-26 13:37 | -39.46581 | -61.55459 | 30380 ft | 421 kts | 216° |
| 2026-04-26 13:38 | -39.48994 | -61.57596 | 29862 ft | 416 kts | 216° |
| 2026-04-26 13:38 | -39.51359 | -61.59692 | 29434 ft | 412 kts | 216° |
| 2026-04-26 13:38 | -39.53719 | -61.61785 | 28973 ft | 411 kts | 215° |
| 2026-04-26 13:38 | -39.56065 | -61.63868 | 28498 ft | 408 kts | 215° |
| 2026-04-26 13:39 | -39.58383 | -61.65927 | 28048 ft | 407 kts | 215° |
| 2026-04-26 13:39 | -39.60691 | -61.67979 | 27611 ft | 405 kts | 215° |
| 2026-04-26 13:39 | -39.63010 | -61.70043 | 27122 ft | 403 kts | 215° |
| 2026-04-26 13:39 | -39.65337 | -61.72115 | 26682 ft | 402 kts | 214° |
| 2026-04-26 13:40 | -39.67608 | -61.74139 | 26242 ft | 401 kts | 214° |
| 2026-04-26 13:40 | -39.69906 | -61.76189 | 25791 ft | 401 kts | 214° |
| 2026-04-26 13:40 | -39.72206 | -61.78243 | 25343 ft | 399 kts | 214° |
| 2026-04-26 13:40 | -39.74490 | -61.80283 | 24910 ft | 398 kts | 214° |
| 2026-04-26 13:41 | -39.76737 | -61.82292 | 24463 ft | 396 kts | 214° |
| 2026-04-26 13:41 | -39.78988 | -61.84307 | 24015 ft | 392 kts | 213° |
| 2026-04-26 13:41 | -39.81219 | -61.86305 | 23589 ft | 388 kts | 213° |
| 2026-04-26 13:41 | -39.83453 | -61.88308 | 23168 ft | 385 kts | 213° |
| 2026-04-26 13:42 | -39.85636 | -61.90266 | 22738 ft | 383 kts | 213° |
| 2026-04-26 13:42 | -39.87833 | -61.92158 | 22312 ft | 381 kts | 210° |
| 2026-04-26 13:42 | -39.90098 | -61.93948 | 21894 ft | 378 kts | 210° |
| 2026-04-26 13:42 | -39.92314 | -61.95705 | 21464 ft | 375 kts | 210° |
| 2026-04-26 13:43 | -39.94532 | -61.97467 | 21061 ft | 372 kts | 210° |
| 2026-04-26 13:43 | -39.96733 | -61.99216 | 20663 ft | 369 kts | 210° |
| 2026-04-26 13:43 | -39.98911 | -62.00948 | 20249 ft | 366 kts | 210° |
| 2026-04-26 13:43 | -40.01076 | -62.02672 | 19838 ft | 363 kts | 211° |
| 2026-04-26 13:44 | -40.03227 | -62.04386 | 19431 ft | 359 kts | 210° |
| 2026-04-26 13:44 | -40.05342 | -62.06072 | 19046 ft | 356 kts | 210° |
| 2026-04-26 13:44 | -40.07438 | -62.07745 | 18673 ft | 354 kts | 211° |
| 2026-04-26 13:44 | -40.09534 | -62.09419 | 18289 ft | 350 kts | 211° |
| 2026-04-26 13:45 | -40.11604 | -62.11073 | 17903 ft | 347 kts | 211° |
| 2026-04-26 13:45 | -40.13634 | -62.12696 | 17512 ft | 343 kts | 211° |
| 2026-04-26 13:45 | -40.15658 | -62.14316 | 17146 ft | 339 kts | 211° |
| 2026-04-26 13:45 | -40.17663 | -62.15921 | 16781 ft | 337 kts | 211° |
| 2026-04-26 13:46 | -40.19635 | -62.17502 | 16406 ft | 334 kts | 211° |
| 2026-04-26 13:46 | -40.21623 | -62.19096 | 16030 ft | 330 kts | 212° |
| 2026-04-26 13:46 | -40.23568 | -62.20657 | 15669 ft | 328 kts | 212° |
| 2026-04-26 13:46 | -40.25498 | -62.22207 | 15315 ft | 325 kts | 212° |
| 2026-04-26 13:47 | -40.27397 | -62.23733 | 14961 ft | 322 kts | 212° |
| 2026-04-26 13:47 | -40.29305 | -62.25267 | 14602 ft | 319 kts | 212° |
| 2026-04-26 13:47 | -40.31197 | -62.26790 | 14255 ft | 316 kts | 212° |
| 2026-04-26 13:47 | -40.33043 | -62.28276 | 13907 ft | 313 kts | 212° |
| 2026-04-26 13:48 | -40.34885 | -62.29760 | 13557 ft | 312 kts | 212° |
| 2026-04-26 13:48 | -40.36737 | -62.31254 | 13219 ft | 309 kts | 212° |
| 2026-04-26 13:48 | -40.38559 | -62.32724 | 12884 ft | 307 kts | 211° |
| 2026-04-26 13:48 | -40.40351 | -62.34170 | 12551 ft | 305 kts | 211° |
| 2026-04-26 13:49 | -40.42149 | -62.35623 | 12208 ft | 304 kts | 211° |
| 2026-04-26 13:49 | -40.43933 | -62.37065 | 11871 ft | 301 kts | 211° |
| 2026-04-26 13:49 | -40.45732 | -62.38520 | 11530 ft | 298 kts | 211° |
| 2026-04-26 13:49 | -40.47465 | -62.39923 | 11150 ft | 288 kts | 211° |
| 2026-04-26 13:50 | -40.49133 | -62.41273 | 10884 ft | 280 kts | 210° |
| 2026-04-26 13:50 | -40.50785 | -62.42612 | 10603 ft | 277 kts | 210° |
| 2026-04-26 13:50 | -40.52385 | -62.43910 | 10302 ft | 270 kts | 210° |
| 2026-04-26 13:50 | -40.53984 | -62.45206 | 10001 ft | 264 kts | 210° |
| 2026-04-26 13:51 | -40.55520 | -62.46453 | 9705 ft | 258 kts | 210° |
| 2026-04-26 13:51 | -40.57021 | -62.47672 | 9431 ft | 254 kts | 210° |
| 2026-04-26 13:51 | -40.58510 | -62.48882 | 9164 ft | 252 kts | 210° |
| 2026-04-26 13:51 | -40.60015 | -62.50105 | 8925 ft | 252 kts | 209° |
| 2026-04-26 13:52 | -40.61493 | -62.51308 | 8611 ft | 249 kts | 209° |
| 2026-04-26 13:52 | -40.62946 | -62.52490 | 8331 ft | 244 kts | 209° |
| 2026-04-26 13:52 | -40.64389 | -62.53665 | 8060 ft | 241 kts | 208° |
| 2026-04-26 13:52 | -40.65815 | -62.54827 | 7796 ft | 240 kts | 209° |
| 2026-04-26 13:53 | -40.67231 | -62.55981 | 7529 ft | 236 kts | 208° |
| 2026-04-26 13:53 | -40.68590 | -62.57090 | 7260 ft | 226 kts | 208° |
| 2026-04-26 13:53 | -40.69906 | -62.58165 | 7010 ft | 217 kts | 208° |
| 2026-04-26 13:53 | -40.71155 | -62.59185 | 6781 ft | 208 kts | 208° |
| 2026-04-26 13:54 | -40.72339 | -62.60152 | 6641 ft | 193 kts | 207° |
| 2026-04-26 13:54 | -40.73457 | -62.61066 | 6391 ft | 183 kts | 207° |
| 2026-04-26 13:54 | -40.74504 | -62.61923 | 6166 ft | 173 kts | 207° |
| 2026-04-26 13:55 | -40.76353 | -62.63437 | 5794 ft | 140 kts | 206° |
| 2026-04-26 13:55 | -40.76899 | -62.63883 | 5793 ft | 136 kts | 206° |
| 2026-04-26 13:55 | -40.78828 | -62.65457 | 5403 ft | 145 kts | 207° |
| 2026-04-26 13:56 | -40.79681 | -62.66154 | 5227 ft | 145 kts | 207° |
| 2026-04-26 13:56 | -40.80541 | -62.66858 | 5060 ft | 144 kts | 207° |
| 2026-04-26 13:56 | -40.81385 | -62.67550 | 4897 ft | 142 kts | 207° |
| 2026-04-26 13:56 | -40.82223 | -62.68237 | 4737 ft | 141 kts | 207° |
| 2026-04-26 13:57 | -40.83052 | -62.68917 | 4669 ft | 140 kts | 207° |
| 2026-04-26 13:57 | -40.83865 | -62.69617 | 4578 ft | 134 kts | 210° |
| 2026-04-26 13:57 | -40.84594 | -62.70301 | 4456 ft | 125 kts | 210° |
| 2026-04-26 13:57 | -40.85309 | -62.70968 | 4348 ft | 124 kts | 210° |
| 2026-04-26 13:58 | -40.86005 | -62.71619 | 4239 ft | 124 kts | 210° |
| 2026-04-26 13:58 | -40.86692 | -62.72264 | 4096 ft | 115 kts | 209° |
| 2026-04-26 13:58 | -40.87335 | -62.72866 | 3970 ft | 112 kts | 209° |
| 2026-04-26 13:58 | -40.87973 | -62.73462 | 3873 ft | 112 kts | 209° |
| 2026-04-26 13:59 | -40.88613 | -62.74062 | 3768 ft | 112 kts | 209° |
| 2026-04-26 13:59 | -40.89252 | -62.74661 | 3656 ft | 111 kts | 209° |
| 2026-04-26 13:59 | -40.89876 | -62.75246 | 3541 ft | 111 kts | 208° |
| 2026-04-26 14:00 | -40.91472 | -62.77375 | 3165 ft | 136 kts | 252° |
| 2026-04-26 14:00 | -40.91307 | -62.78667 | 3014 ft | 147 kts | 265° |
| 2026-04-26 14:00 | -40.91148 | -62.79516 | 2902 ft | 138 kts | 264° |
| 2026-04-26 14:01 | -40.90844 | -62.81130 | 2634 ft | 134 kts | 265° |
| 2026-04-26 14:01 | -40.90611 | -62.82322 | 2451 ft | 133 kts | 265° |
| 2026-04-26 14:01 | -40.90377 | -62.83498 | 2271 ft | 134 kts | 265° |
| 2026-04-26 14:01 | -40.90137 | -62.84690 | 2105 ft | 133 kts | 265° |
| 2026-04-26 14:02 | -40.89900 | -62.85821 | 1893 ft | 125 kts | 265° |
| 2026-04-26 14:02 | -40.89678 | -62.86897 | 1740 ft | 122 kts | 265° |
| 2026-04-26 14:02 | -40.89454 | -62.87985 | 1604 ft | 121 kts | 266° |
| 2026-04-26 14:02 | -40.89232 | -62.89053 | 1458 ft | 120 kts | 267° |
| 2026-04-26 14:03 | -40.89013 | -62.90108 | 1304 ft | 118 kts | 267° |
| 2026-04-26 14:03 | -40.88796 | -62.91156 | 1156 ft | 121 kts | 269° |
| 2026-04-26 14:03 | -40.88573 | -62.92222 | 1001 ft | 119 kts | 270° |
| 2026-04-26 14:03 | -40.88354 | -62.93268 | 835 ft | 117 kts | 272° |
| 2026-04-26 14:04 | -40.88135 | -62.94307 | 667 ft | 116 kts | 272° |
| 2026-04-26 14:04 | -40.87918 | -62.95336 | 497 ft | 115 kts | 275° |
| 2026-04-26 14:04 | -40.87691 | -62.96310 | 314 ft | 109 kts | 275° |
| 2026-04-26 14:04 | -40.87497 | -62.97274 | 212 ft | 112 kts | 276° |
| 2026-04-26 14:05 | -40.87289 | -62.98293 | 69 ft | 117 kts | 279° |
| 2026-04-26 14:05 | -40.87091 | -62.99259 | 19 ft | 96 kts | 284° |
| 2026-04-26 14:05 | -40.86981 | -62.99833 | 19 ft | 38 kts | 286° |
| 2026-04-26 14:05 | -40.86940 | -63.00008 | 19 ft | 5 kts | 294° |
| 2026-04-26 14:06 | -40.86939 | -63.00011 | 19 ft | 0 kts | 294° |
| 2026-04-26 14:06 | -40.86933 | -63.00026 | 19 ft | 4 kts | 300° |
| 2026-04-26 14:06 | -40.86904 | -63.00074 | 19 ft | 9 kts | 311° |
| 2026-04-26 14:06 | -40.86899 | -63.00082 | 19 ft | 0 kts | 311° |
| 2026-04-26 14:07 | -40.86890 | -63.00095 | 19 ft | 3 kts | 310° |
| 2026-04-26 14:07 | -40.86864 | -63.00131 | 19 ft | 7 kts | 314° |
| 2026-04-26 14:07 | -40.86822 | -63.00185 | 19 ft | 9 kts | 317° |
| 2026-04-26 14:07 | -40.86765 | -63.00258 | 19 ft | 12 kts | 316° |
| 2026-04-26 14:08 | -40.86698 | -63.00345 | 21 ft | 12 kts | 315° |
| 2026-04-26 14:08 | -40.86645 | -63.00415 | 24 ft | 8 kts | 315° |
| 2026-04-26 14:08 | -40.86610 | -63.00458 | 25 ft | 6 kts | 315° |
| 2026-04-26 14:08 | -40.86588 | -63.00488 | 26 ft | 3 kts | 314° |
| 2026-04-26 14:09 | -40.86563 | -63.00521 | 27 ft | 6 kts | 315° |
| 2026-04-26 14:09 | -40.86527 | -63.00567 | 28 ft | 8 kts | 315° |
| 2026-04-26 14:09 | -40.86483 | -63.00607 | 30 ft | 6 kts | 343° |
| 2026-04-26 14:09 | -40.86444 | -63.00597 | 31 ft | 7 kts | 33° |
| 2026-04-26 14:10 | -40.86394 | -63.00550 | 33 ft | 9 kts | 19° |
| 2026-04-26 14:10 | -40.86362 | -63.00544 | 34 ft | 0 kts | 2° |